Terminal Aerodrome Forecast
Issued by NWS Sterling, VA

Home | Current Version | Previous Version | Text Only | Print | Product List | Glossary On
Versions: 1 2 3 4 5 6 7 8 9 10 11 12 13 14 15 16 17 18 19 20 21 22 23 24 25 26 27 28
461
FTUS41 KLWX 200532
TAFDCA
TAF
KDCA 200532Z 2006/2106 35006KT P6SM FEW250
     FM202000 VRB04KT P6SM FEW060
     FM210300 17004KT P6SM BKN050=

USA.gov is the U.S. government's official web portal to all federal, state and local government web resources and services.